KBOI/BOI METAR and TAF weather

Enter ICAO airport designator
Station Type Date Time Source
KBOI METAR 2018/04/21 10:53 UTC NOAA

KBOI 211053Z 13007KT 10SM CLR 08/01 A3012 RMK AO2 SLP188 T00780006 $


Station Type Date Time Source
KBOI Decoded METAR 2018/04/21 10:53 UTC NOAA

BOISE AIR TERMINAL, ID, United States (KBOI) 43-34N 116-14W 875M
Apr 21, 2018 - 06:53 AM EDT / 2018.04.21 1053 UTC
Wind: from the SE (130 degrees) at 8 MPH (7 KT):0
Visibility: 10 mile(s):0
Sky conditions: clear
Temperature: 46.0 F (7.8 C)
Dew Point: 33.1 F (0.6 C)
Relative Humidity: 60%
Pressure (altimeter): 30.12 in. Hg (1019 hPa)
ob: KBOI 211053Z 13007KT 10SM CLR 08/01 A3012 RMK AO2 SLP188 T00780006
cycle: 11

Station Type Date Time Source
KBOI TAF 2018/04/21 12:30 UTC NOAA

TAF KBOI 211127Z 2112/2212 13007KT P6SM FEW250
FM211700 32013G21KT P6SM FEW150
FM220200 32007KT P6SM SCT100


Example: see airport list